Terminal Aerodrome Forecast
Issued by NWS Corpus Christi, TX

Home | Current Version | Previous Version | Text Only | Print | Product List | Glossary On
Versions: 1 2 3 4 5 6 7 8 9 10 11 12 13 14 15 16 17
000
FTUS44 KCRP 172300
TAFCRP
TAF
KCRP 172325Z 1800/1824 15011KT P6SM FEW035 SCT100
     FM180300 16007KT P6SM FEW015 BKN150
      TEMPO 1811/1815 P6SM BKN015
     FM181600 17010KT P6SM VCSH FEW030 SCT250
     FM182200 14012KT P6SM FEW030 SCT150=

USA.gov is the U.S. government's official web portal to all federal, state and local government web resources and services.